createdAt,value
2022-11-29T00:01:06.257Z,101202.00
2022-11-29T00:03:50.915Z,101204.97
2022-11-29T00:06:35.872Z,101211.47
2022-11-29T00:09:19.438Z,101202.28
2022-11-29T00:12:12.243Z,101202.28
2022-11-29T00:14:55.760Z,101193.09
2022-11-29T00:17:39.250Z,101201.75
2022-11-29T00:20:23.678Z,101199.84
2022-11-29T00:23:07.347Z,101202.78
2022-11-29T00:25:50.859Z,101203.34
2022-11-29T00:28:35.979Z,101203.88
2022-11-29T00:31:30.497Z,101207.97
2022-11-29T00:34:14.098Z,101206.59
2022-11-29T00:36:57.682Z,101207.13
2022-11-29T00:39:41.332Z,101210.09
2022-11-29T00:42:24.879Z,101200.38
2022-11-29T00:45:09.511Z,101198.50
2022-11-29T00:47:53.165Z,101209.84
2022-11-29T00:50:36.650Z,101202.56
2022-11-29T00:53:20.124Z,101201.19
2022-11-29T00:56:05.635Z,101200.38
2022-11-29T00:58:49.554Z,101201.75
2022-11-29T01:01:33.197Z,101203.91
2022-11-29T01:04:17.608Z,101206.09
2022-11-29T01:07:01.164Z,101202.03
2022-11-29T01:09:44.625Z,101206.63
2022-11-29T01:12:28.134Z,101195.84
2022-11-29T01:15:11.961Z,101200.41
2022-11-29T01:17:55.619Z,101205.28
2022-11-29T01:20:39.107Z,101208.22
2022-11-29T01:23:22.595Z,101209.84
2022-11-29T01:26:11.781Z,101205.25
2022-11-29T01:28:57.612Z,101209.28
2022-11-29T01:31:41.210Z,101205.53
2022-11-29T01:34:24.709Z,101207.44
2022-11-29T01:37:08.618Z,101209.03
2022-11-29T01:39:52.096Z,101210.13
2022-11-29T01:42:35.574Z,101209.84
2022-11-29T01:45:26.474Z,101205.28
2022-11-29T01:48:12.487Z,101210.13
2022-11-29T01:51:01.399Z,101206.63
2022-11-29T01:53:45.317Z,101209.31
2022-11-29T01:56:32.791Z,101199.09
2022-11-29T01:59:29.632Z,101200.94
2022-11-29T02:02:28.344Z,101204.47
2022-11-29T02:05:17.254Z,101200.94
2022-11-29T02:08:02.091Z,101200.16
2022-11-29T02:11:09.822Z,101200.13
2022-11-29T02:14:22.830Z,101200.94
2022-11-29T02:17:18.381Z,101196.09
2022-11-29T02:20:23.070Z,101208.75
2022-11-29T02:23:25.479Z,101197.19
2022-11-29T02:26:48.910Z,101201.22
2022-11-29T02:30:05.373Z,101208.47
2022-11-29T02:33:12.906Z,101205.81
2022-11-29T02:36:27.334Z,101214.72
2022-11-29T02:39:16.718Z,101218.50
2022-11-29T02:42:54.404Z,101210.13
2022-11-29T02:46:23.498Z,101208.22
2022-11-29T02:49:28.083Z,101209.84
2022-11-29T02:52:35.811Z,101220.88
2022-11-29T02:55:44.617Z,101216.88
2022-11-29T02:58:58.640Z,101218.19
2022-11-29T03:02:08.555Z,101215.75
2022-11-29T03:05:17.496Z,101222.53
2022-11-29T03:08:25.754Z,101225.75
2022-11-29T03:11:30.066Z,101219.81
2022-11-29T03:14:28.426Z,101222.25
2022-11-29T03:18:09.441Z,101228.19
2022-11-29T03:21:22.591Z,101236.00
2022-11-29T03:24:23.678Z,101231.16
2022-11-29T03:27:16.596Z,101234.38
2022-11-29T03:30:07.591Z,101241.94
2022-11-29T03:33:09.487Z,101244.13
2022-11-29T03:36:14.086Z,101237.59
2022-11-29T03:39:07.846Z,101241.94
2022-11-29T03:42:06.405Z,101243.31
2022-11-29T03:45:15.360Z,101241.66
2022-11-29T03:48:40.836Z,101242.22
2022-11-29T03:51:59.783Z,101251.13
2022-11-29T03:54:56.618Z,101242.75
2022-11-29T03:58:10.219Z,101248.66
2022-11-29T04:01:11.306Z,101254.06
2022-11-29T04:04:36.502Z,101250.03
2022-11-29T04:07:54.313Z,101248.13
2022-11-29T04:11:05.428Z,101250.56
2022-11-29T04:14:33.100Z,101245.16
2022-11-29T04:17:42.648Z,101246.53
2022-11-29T04:21:12.666Z,101248.69
2022-11-29T04:24:10.483Z,101257.06
2022-11-29T04:27:49.315Z,101258.69
2022-11-29T04:30:57.659Z,101257.63
2022-11-29T04:33:59.003Z,101254.88
2022-11-29T04:37:13.270Z,101249.78
2022-11-29T04:40:48.157Z,101253.81
2022-11-29T04:44:05.595Z,101257.84
2022-11-29T04:47:07.869Z,101255.69
2022-11-29T04:50:19.019Z,101255.72
2022-11-29T04:53:52.142Z,101252.72
2022-11-29T04:57:17.858Z,101263.78
2022-11-29T05:00:12.687Z,101259.75
2022-11-29T05:03:04.699Z,101265.38
2022-11-29T05:06:17.275Z,101264.31
2022-11-29T05:09:36.784Z,101271.91
2022-11-29T05:12:35.356Z,101268.38
2022-11-29T05:15:55.921Z,101273.81
2022-11-29T05:19:37.329Z,101278.13
2022-11-29T05:22:32.824Z,101285.13
2022-11-29T05:25:46.117Z,101282.16
2022-11-29T05:29:01.589Z,101285.09
2022-11-29T05:32:39.730Z,101293.75
2022-11-29T05:35:53.033Z,101292.06
2022-11-29T05:39:02.811Z,101296.19
2022-11-29T05:41:55.587Z,101296.97
2022-11-29T05:44:49.488Z,101295.88
2022-11-29T05:47:47.900Z,101299.09
2022-11-29T05:50:45.743Z,101296.13
2022-11-29T05:54:08.296Z,101302.09
2022-11-29T05:57:29.175Z,101316.34
2022-11-29T06:00:16.874Z,101313.66
2022-11-29T06:03:06.612Z,101306.66
2022-11-29T06:06:01.087Z,101308.78
2022-11-29T06:09:23.600Z,101322.31
2022-11-29T06:12:21.247Z,101320.72
2022-11-29T06:15:17.319Z,101328.22
2022-11-29T06:18:32.630Z,101332.31
2022-11-29T06:21:40.308Z,101330.66
2022-11-29T06:25:01.516Z,101333.06
2022-11-29T06:28:08.358Z,101341.25
2022-11-29T06:31:21.236Z,101350.44
2022-11-29T06:34:20.397Z,101348.28
2022-11-29T06:37:35.494Z,101354.19
2022-11-29T06:40:19.076Z,101354.47
2022-11-29T06:43:03.081Z,101354.22
2022-11-29T06:45:57.109Z,101351.78
2022-11-29T06:49:02.071Z,101360.16
2022-11-29T06:51:58.303Z,101360.63
2022-11-29T06:55:02.900Z,101372.25
2022-11-29T06:58:46.038Z,101371.16
2022-11-29T07:02:24.595Z,101363.34
2022-11-29T07:05:25.504Z,101371.97
2022-11-29T07:08:22.884Z,101379.03
2022-11-29T07:11:06.860Z,101374.44
2022-11-29T07:13:51.072Z,101377.13
2022-11-29T07:16:59.880Z,101382.03
2022-11-29T07:20:18.162Z,101380.66
2022-11-29T07:23:14.155Z,101382.28
2022-11-29T07:26:36.160Z,101385.25
2022-11-29T07:30:13.533Z,101387.44
2022-11-29T07:33:05.706Z,101393.63
2022-11-29T07:36:09.426Z,101387.44
2022-11-29T07:39:15.638Z,101395.81
2022-11-29T07:42:31.501Z,101398.75
2022-11-29T07:45:32.573Z,101396.91
2022-11-29T07:48:17.919Z,101403.06
2022-11-29T07:51:02.606Z,101403.38
2022-11-29T07:53:48.936Z,101409.28
2022-11-29T07:56:32.513Z,101414.69
2022-11-29T07:59:16.598Z,101408.75
2022-11-29T08:02:00.355Z,101409.28
2022-11-29T08:04:47.070Z,101418.72
2022-11-29T08:07:31.559Z,101421.19
2022-11-29T08:10:17.189Z,101414.69
2022-11-29T08:13:00.887Z,101416.91
2022-11-29T08:15:48.680Z,101425.56
2022-11-29T08:18:32.646Z,101423.91
2022-11-29T08:21:18.179Z,101422.31
2022-11-29T08:24:01.711Z,101430.72
2022-11-29T08:26:45.326Z,101428.56
2022-11-29T08:29:28.851Z,101424.25
2022-11-29T08:32:12.495Z,101432.56
2022-11-29T08:34:56.074Z,101430.44
2022-11-29T08:37:39.657Z,101438.03
2022-11-29T08:40:24.385Z,101435.88
2022-11-29T08:43:08.035Z,101437.22
2022-11-29T08:45:54.652Z,101435.63
2022-11-29T08:48:38.537Z,101437.75
2022-11-29T08:51:22.536Z,101433.69
2022-11-29T08:54:06.132Z,101434.81
2022-11-29T08:57:38.125Z,101438.88
2022-11-29T08:59:53.409Z,101437.25
2022-11-29T09:02:38.200Z,101439.66
2022-11-29T09:05:21.780Z,101442.09
2022-11-29T09:08:05.595Z,101436.69
2022-11-29T09:10:49.550Z,101439.41
2022-11-29T09:13:33.209Z,101449.66
2022-11-29T09:16:23.686Z,101452.66
2022-11-29T09:19:08.011Z,101454.81
2022-11-29T09:21:51.729Z,101452.13
2022-11-29T09:24:35.288Z,101463.19
2022-11-29T09:27:18.810Z,101460.47
2022-11-29T09:30:02.312Z,101450.75
2022-11-29T09:32:46.426Z,101452.38
2022-11-29T09:35:30.423Z,101459.69
2022-11-29T09:38:15.113Z,101457.78
2022-11-29T09:41:21.262Z,101459.66
2022-11-29T09:44:46.250Z,101460.47
2022-11-29T09:48:08.653Z,101456.69
2022-11-29T09:51:30.242Z,101463.97
2022-11-29T09:54:56.303Z,101466.41
2022-11-29T09:57:44.185Z,101476.13
2022-11-29T10:00:30.959Z,101466.13
2022-11-29T10:03:33.496Z,101462.38
2022-11-29T10:06:41.108Z,101466.97
2022-11-29T10:09:33.917Z,101463.97
2022-11-29T10:12:38.987Z,101463.97
2022-11-29T10:15:32.091Z,101470.47
2022-11-29T10:18:38.530Z,101464.50
2022-11-29T10:21:32.184Z,101473.16
2022-11-29T10:24:21.093Z,101468.03
2022-11-29T10:27:22.717Z,101472.09
2022-11-29T10:30:17.059Z,101478.00
2022-11-29T10:33:00.958Z,101474.75
2022-11-29T10:35:47.839Z,101480.16
2022-11-29T10:38:32.097Z,101480.72
2022-11-29T10:41:22.983Z,101477.44
2022-11-29T10:44:06.839Z,101483.41
2022-11-29T10:46:51.408Z,101478.53
2022-11-29T10:49:37.854Z,101485.25
2022-11-29T10:52:23.756Z,101477.13
2022-11-29T10:55:14.995Z,101480.34
2022-11-29T10:58:13.019Z,101482.00
2022-11-29T11:01:07.506Z,101477.94
2022-11-29T11:03:57.311Z,101480.06
2022-11-29T11:06:56.839Z,101480.88
2022-11-29T11:09:49.497Z,101480.91
2022-11-29T11:12:35.202Z,101482.50
2022-11-29T11:15:24.944Z,101481.19
2022-11-29T11:18:22.933Z,101484.38
2022-11-29T11:21:12.381Z,101491.97
2022-11-29T11:24:03.122Z,101494.78
2022-11-29T11:26:46.820Z,101486.09
2022-11-29T11:29:52.657Z,101491.75
2022-11-29T11:32:37.409Z,101489.53
2022-11-29T11:35:24.394Z,101498.78
2022-11-29T11:38:17.047Z,101490.88
2022-11-29T11:41:17.192Z,101489.78
2022-11-29T11:44:04.470Z,101486.53
2022-11-29T11:46:52.917Z,101495.13
2022-11-29T11:49:47.987Z,101495.16
2022-11-29T11:52:54.585Z,101487.31
2022-11-29T11:55:43.967Z,101492.50
2022-11-29T11:59:00.096Z,101499.31
2022-11-29T12:01:44.377Z,101503.06
2022-11-29T12:04:36.047Z,101503.25
2022-11-29T12:08:10.818Z,101495.69
2022-11-29T12:11:07.239Z,101503.00
2022-11-29T12:13:58.219Z,101500.53
2022-11-29T12:16:45.377Z,101510.84
2022-11-29T12:19:42.203Z,101511.94
2022-11-29T12:22:41.520Z,101508.63
2022-11-29T12:26:34.528Z,101513.59
2022-11-29T12:29:22.987Z,101512.22
2022-11-29T12:32:41.818Z,101514.38
2022-11-29T12:35:51.418Z,101511.91
2022-11-29T12:38:51.115Z,101509.03
2022-11-29T12:41:56.658Z,101510.84
2022-11-29T12:44:58.591Z,101511.47
2022-11-29T12:48:22.894Z,101521.16
2022-11-29T12:51:39.893Z,101529.31
2022-11-29T12:54:52.949Z,101529.78
2022-11-29T12:57:55.156Z,101534.22
2022-11-29T13:01:19.747Z,101536.94
2022-11-29T13:04:33.665Z,101542.88
2022-11-29T13:08:33.054Z,101540.47
2022-11-29T13:11:42.126Z,101543.44
2022-11-29T13:14:46.160Z,101546.13
2022-11-29T13:17:51.425Z,101548.03
2022-11-29T13:21:25.645Z,101547.28
2022-11-29T13:24:36.034Z,101543.69
2022-11-29T13:27:33.301Z,101546.94
2022-11-29T13:30:17.377Z,101545.59
2022-11-29T13:33:48.114Z,101548.28
2022-11-29T13:36:54.129Z,101551.53
2022-11-29T13:40:05.476Z,101549.13
2022-11-29T13:43:12.706Z,101547.47
2022-11-29T13:46:43.587Z,101553.75
2022-11-29T13:49:57.037Z,101556.19
2022-11-29T13:52:47.834Z,101558.25
2022-11-29T13:55:31.807Z,101556.09
2022-11-29T13:58:17.416Z,101559.16
2022-11-29T14:01:14.591Z,101556.69
2022-11-29T14:04:07.712Z,101565.34
2022-11-29T14:07:19.579Z,101561.59
2022-11-29T14:10:17.132Z,101562.41
2022-11-29T14:13:01.973Z,101558.63
2022-11-29T14:15:57.458Z,101567.81
2022-11-29T14:19:06.572Z,101570.25
2022-11-29T14:21:59.051Z,101574.31
2022-11-29T14:24:55.032Z,101576.22
2022-11-29T14:27:56.450Z,101570.50
2022-11-29T14:31:02.977Z,101576.16
2022-11-29T14:34:12.183Z,101571.59
2022-11-29T14:37:21.119Z,101579.97
2022-11-29T14:40:27.937Z,101581.00
2022-11-29T14:43:37.869Z,101584.56
2022-11-29T14:46:33.036Z,101588.63
2022-11-29T14:49:26.525Z,101585.38
2022-11-29T14:52:16.135Z,101588.06
2022-11-29T14:55:06.098Z,101595.97
2022-11-29T14:58:15.847Z,101597.31
2022-11-29T15:01:09.568Z,101597.31
2022-11-29T15:03:56.193Z,101604.06
2022-11-29T15:06:47.483Z,101598.66
2022-11-29T15:09:38.290Z,101606.47
2022-11-29T15:12:27.502Z,101604.06
2022-11-29T15:15:48.673Z,101605.97
2022-11-29T15:19:02.583Z,101609.75
2022-11-29T15:21:48.930Z,101605.69
2022-11-29T15:24:32.493Z,101611.38
2022-11-29T15:27:19.925Z,101607.59
2022-11-29T15:30:37.015Z,101615.72
2022-11-29T15:33:25.931Z,101622.75
2022-11-29T15:36:20.996Z,101613.81
2022-11-29T15:39:04.568Z,101624.09
2022-11-29T15:41:48.007Z,101621.66
2022-11-29T15:44:32.911Z,101633.28
2022-11-29T15:47:25.878Z,101629.78
2022-11-29T15:50:33.570Z,101631.97
2022-11-29T15:53:27.612Z,101635.19
2022-11-29T15:56:39.610Z,101634.09
2022-11-29T15:59:58.588Z,101638.97
2022-11-29T16:02:58.173Z,101644.13
2022-11-29T16:05:42.310Z,101651.97
2022-11-29T16:08:33.280Z,101650.91
2022-11-29T16:11:21.107Z,101650.34
2022-11-29T16:14:16.858Z,101653.31
2022-11-29T16:17:02.530Z,101649.53
2022-11-29T16:19:47.139Z,101659.00
2022-11-29T16:22:32.302Z,101660.91
2022-11-29T16:25:20.102Z,101660.31
2022-11-29T16:28:04.281Z,101661.69
2022-11-29T16:30:48.257Z,101666.31
2022-11-29T16:33:32.725Z,101674.97
2022-11-29T16:36:20.174Z,101672.25
2022-11-29T16:39:21.935Z,101672.00
2022-11-29T16:42:26.372Z,101677.41
2022-11-29T16:45:34.565Z,101682.28
2022-11-29T16:48:25.617Z,101677.13
2022-11-29T16:51:14.940Z,101676.31
2022-11-29T16:54:20.480Z,101680.09
2022-11-29T16:57:06.454Z,101680.91
2022-11-29T16:59:50.925Z,101675.53
2022-11-29T17:02:34.423Z,101680.91
2022-11-29T17:05:18.142Z,101687.97
2022-11-29T17:08:01.848Z,101689.28
2022-11-29T17:10:45.420Z,101685.25
2022-11-29T17:13:29.045Z,101690.38
2022-11-29T17:16:19.453Z,101689.59
2022-11-29T17:19:03.257Z,101697.97
2022-11-29T17:21:46.844Z,101697.16
2022-11-29T17:24:30.692Z,101698.50
2022-11-29T17:27:14.306Z,101703.66
2022-11-29T17:30:05.947Z,101694.44
2022-11-29T17:33:02.959Z,101700.13
2022-11-29T17:35:47.554Z,101700.69
2022-11-29T17:38:31.022Z,101699.56
2022-11-29T17:41:22.515Z,101704.16
2022-11-29T17:44:05.950Z,101709.34
2022-11-29T17:46:49.425Z,101712.00
2022-11-29T17:49:32.907Z,101709.81
2022-11-29T17:52:16.434Z,101711.94
2022-11-29T17:54:59.880Z,101711.47
2022-11-29T17:57:43.481Z,101710.38
2022-11-29T18:00:27.082Z,101712.00
2022-11-29T18:03:10.529Z,101713.63
2022-11-29T18:05:57.567Z,101715.81
2022-11-29T18:08:45.021Z,101709.50
2022-11-29T18:11:46.893Z,101711.16
2022-11-29T18:14:32.791Z,101721.19
2022-11-29T18:17:16.766Z,101719.84
2022-11-29T18:20:00.224Z,101726.00
2022-11-29T18:22:43.796Z,101727.97
2022-11-29T18:25:42.654Z,101728.19
2022-11-29T18:28:29.088Z,101730.31
2022-11-29T18:31:28.391Z,101735.22
2022-11-29T18:34:14.098Z,101726.84
2022-11-29T18:36:57.881Z,101739.59
2022-11-29T18:39:41.307Z,101732.22
2022-11-29T18:42:24.751Z,101732.00
2022-11-29T18:45:08.432Z,101737.06
2022-11-29T18:47:51.889Z,101743.59
2022-11-29T18:50:35.362Z,101742.53
2022-11-29T18:53:18.839Z,101747.91
2022-11-29T18:56:13.501Z,101735.22
2022-11-29T18:59:00.621Z,101745.53
2022-11-29T19:01:47.554Z,101745.03
2022-11-29T19:04:31.612Z,101742.03
2022-11-29T19:07:15.146Z,101745.00
2022-11-29T19:09:58.629Z,101745.25
2022-11-29T19:12:42.113Z,101744.69
2022-11-29T19:15:25.616Z,101745.44
2022-11-29T19:18:09.084Z,101743.88
2022-11-29T19:20:53.652Z,101751.19
2022-11-29T19:23:37.988Z,101748.75
2022-11-29T19:26:22.962Z,101752.25
2022-11-29T19:29:06.711Z,101749.59
2022-11-29T19:31:50.581Z,101762.59
2022-11-29T19:34:34.056Z,101747.91
2022-11-29T19:37:17.508Z,101752.78
2022-11-29T19:40:01.001Z,101756.28
2022-11-29T19:42:50.749Z,101750.41
2022-11-29T19:45:34.561Z,101758.47
2022-11-29T19:48:18.016Z,101756.31
2022-11-29T19:51:01.517Z,101760.69
2022-11-29T19:53:46.529Z,101760.09
2022-11-29T19:56:31.697Z,101755.75
2022-11-29T19:59:15.289Z,101758.78
2022-11-29T20:01:59.180Z,101757.13
2022-11-29T20:04:43.439Z,101757.38
2022-11-29T20:07:27.021Z,101766.31
2022-11-29T20:10:10.960Z,101767.88
2022-11-29T20:12:55.156Z,101766.56
2022-11-29T20:15:38.663Z,101763.00
2022-11-29T20:18:22.179Z,101770.06
2022-11-29T20:21:08.247Z,101773.31
2022-11-29T20:24:01.029Z,101771.72
2022-11-29T20:26:47.633Z,101772.25
2022-11-29T20:29:33.011Z,101771.13
2022-11-29T20:32:17.763Z,101773.09
2022-11-29T20:35:02.654Z,101777.44
2022-11-29T20:38:22.614Z,101775.59
2022-11-29T20:41:29.178Z,101769.59
2022-11-29T20:44:21.387Z,101776.88
2022-11-29T20:47:18.620Z,101773.88
2022-11-29T20:50:02.443Z,101780.00
2022-11-29T20:53:26.648Z,101776.28
2022-11-29T20:56:12.161Z,101786.78
2022-11-29T20:58:56.402Z,101793.28
2022-11-29T21:01:39.873Z,101787.63
2022-11-29T21:04:23.807Z,101791.97
2022-11-29T21:07:07.326Z,101796.06
2022-11-29T21:09:50.756Z,101796.84
2022-11-29T21:12:35.118Z,101801.72
2022-11-29T21:15:19.185Z,101798.50
2022-11-29T21:18:02.953Z,101801.47
2022-11-29T21:21:24.812Z,101798.50
2022-11-29T21:24:46.035Z,101800.84
2022-11-29T21:27:33.986Z,101811.66
2022-11-29T21:30:24.366Z,101802.13
2022-11-29T21:33:08.952Z,101804.94
2022-11-29T21:35:58.013Z,101816.56
2022-11-29T21:38:41.881Z,101809.06
2022-11-29T21:41:25.322Z,101812.47
2022-11-29T21:44:08.980Z,101807.84
2022-11-29T21:46:52.581Z,101808.75
2022-11-29T21:49:36.486Z,101809.56
2022-11-29T21:52:22.784Z,101808.72
2022-11-29T21:55:07.169Z,101807.84
2022-11-29T21:57:50.605Z,101813.06
2022-11-29T22:00:37.398Z,101815.81
2022-11-29T22:03:21.565Z,101818.00
2022-11-29T22:06:09.130Z,101822.50
2022-11-29T22:08:53.022Z,101822.75
2022-11-29T22:11:36.603Z,101812.47
2022-11-29T22:14:20.127Z,101821.38
2022-11-29T22:17:03.527Z,101815.50
2022-11-29T22:19:46.918Z,101821.69
2022-11-29T22:22:31.391Z,101829.47
2022-11-29T22:25:15.797Z,101832.00
2022-11-29T22:27:59.256Z,101830.34
2022-11-29T22:30:42.681Z,101821.25
2022-11-29T22:33:26.491Z,101822.56
2022-11-29T22:36:12.606Z,101832.56
2022-11-29T22:38:58.545Z,101827.16
2022-11-29T22:41:42.993Z,101833.13
2022-11-29T22:44:26.568Z,101842.28
2022-11-29T22:47:10.025Z,101836.88
2022-11-29T22:49:53.646Z,101831.91
2022-11-29T22:52:37.666Z,101841.94
2022-11-29T22:55:22.914Z,101837.91
2022-11-29T22:58:06.550Z,101833.91
2022-11-29T23:00:50.079Z,101836.03
2022-11-29T23:03:39.526Z,101837.47
2022-11-29T23:06:32.633Z,101846.06
2022-11-29T23:09:21.727Z,101840.72
2022-11-29T23:12:05.363Z,101833.13
2022-11-29T23:14:54.546Z,101837.47
2022-11-29T23:17:39.681Z,101838.97
2022-11-29T23:20:23.138Z,101834.44
2022-11-29T23:23:06.758Z,101837.13
2022-11-29T23:25:50.711Z,101846.44
2022-11-29T23:28:35.903Z,101841.03
2022-11-29T23:31:21.518Z,101843.06
2022-11-29T23:34:05.584Z,101844.19
2022-11-29T23:36:52.977Z,101841.09
2022-11-29T23:39:36.736Z,101834.63
2022-11-29T23:42:20.358Z,101841.16
2022-11-29T23:45:04.131Z,101836.00
2022-11-29T23:47:47.574Z,101839.56
2022-11-29T23:50:30.990Z,101835.97
2022-11-29T23:53:18.090Z,101852.19
2022-11-29T23:56:15.333Z,101845.69
2022-11-29T23:58:58.753Z,101849.38
